EYVI/VNO METAR and TAF weather

Enter ICAO airport designator
Station Type Date Time Source
EYVI METAR 2022/06/25 23:20 UTC NOAA

EYVI 252320Z 29002KT CAVOK 20/14 Q1020 NOSIG


Station Type Date Time Source
EYVI Decoded METAR 2022/06/25 23:20 UTC NOAA

Vilnius, Lithuania (EYVI) 54-38N 025-06E 156M
Jun 25, 2022 - 07:20 PM EDT / 2022.06.25 2320 UTC
Wind: from the WNW (290 degrees) at 2 MPH (2 KT):0
Visibility: greater than 7 mile(s):0
Temperature: 68 F (20 C)
Dew Point: 57 F (14 C)
Relative Humidity: 68%
Pressure (altimeter): 30.12 in. Hg (1020 hPa)
ob: EYVI 252320Z 29002KT CAVOK 20/14 Q1020 NOSIG
cycle: 23

Station Type Date Time Source
EYVI TAF 2022/06/25 18:06 UTC NOAA

TAF EYVI 251700Z 2518/2618 VRB05KT 9000 NSC

Example: see airport list